sensor_id;sensor_type;location;lat;lon;timestamp;pressure;altitude;pressure_sealevel;temperature;humidity
63351;BME280;64988;51.058;17.040;2023-03-02T00:03:46;101156.41;;;-4.16;85.00
63351;BME280;64988;51.058;17.040;2023-03-02T00:09:14;101155.44;;;-4.03;85.08
63351;BME280;64988;51.058;17.040;2023-03-02T00:14:42;101156.34;;;-4.06;84.24
63351;BME280;64988;51.058;17.040;2023-03-02T00:20:10;101154.63;;;-4.08;84.38
63351;BME280;64988;51.058;17.040;2023-03-02T00:25:38;101156.41;;;-4.19;83.60
63351;BME280;64988;51.058;17.040;2023-03-02T00:31:06;101146.00;;;-4.38;83.35
63351;BME280;64988;51.058;17.040;2023-03-02T00:36:34;101160.13;;;-4.57;83.87
63351;BME280;64988;51.058;17.040;2023-03-02T00:42:01;101154.91;;;-4.73;83.38
63351;BME280;64988;51.058;17.040;2023-03-02T00:47:28;101156.72;;;-4.82;84.54
63351;BME280;64988;51.058;17.040;2023-03-02T00:52:55;101140.91;;;-4.94;83.81
63351;BME280;64988;51.058;17.040;2023-03-02T00:58:25;101133.06;;;-5.03;85.06
63351;BME280;64988;51.058;17.040;2023-03-02T01:03:53;101136.56;;;-5.02;86.34
63351;BME280;64988;51.058;17.040;2023-03-02T01:09:21;101129.50;;;-4.87;87.45
63351;BME280;64988;51.058;17.040;2023-03-02T01:14:49;101132.16;;;-4.85;86.43
63351;BME280;64988;51.058;17.040;2023-03-02T01:20:17;101120.75;;;-5.04;84.52
63351;BME280;64988;51.058;17.040;2023-03-02T01:25:45;101105.00;;;-5.13;85.50
63351;BME280;64988;51.058;17.040;2023-03-02T01:31:13;101103.28;;;-5.21;85.70
63351;BME280;64988;51.058;17.040;2023-03-02T01:36:41;101093.66;;;-5.30;85.65
63351;BME280;64988;51.058;17.040;2023-03-02T01:42:12;101084.88;;;-5.26;86.02
63351;BME280;64988;51.058;17.040;2023-03-02T01:47:40;101076.97;;;-5.21;86.97
63351;BME280;64988;51.058;17.040;2023-03-02T01:53:14;101076.94;;;-5.15;87.61
63351;BME280;64988;51.058;17.040;2023-03-02T01:58:45;101074.31;;;-5.18;86.54
63351;BME280;64988;51.058;17.040;2023-03-02T02:04:13;101072.59;;;-5.21;86.48
63351;BME280;64988;51.058;17.040;2023-03-02T02:09:44;101066.41;;;-5.12;87.67
63351;BME280;64988;51.058;17.040;2023-03-02T02:15:13;101059.38;;;-5.03;87.26
63351;BME280;64988;51.058;17.040;2023-03-02T02:20:45;101055.88;;;-5.06;87.06
63351;BME280;64988;51.058;17.040;2023-03-02T02:26:43;101055.03;;;-5.17;86.24
63351;BME280;64988;51.058;17.040;2023-03-02T02:37:45;101053.25;;;-5.11;86.19
63351;BME280;64988;51.058;17.040;2023-03-02T02:43:19;101034.78;;;-5.00;87.55
63351;BME280;64988;51.058;17.040;2023-03-02T02:48:47;101041.81;;;-5.02;86.74
63351;BME280;64988;51.058;17.040;2023-03-02T02:54:16;101038.34;;;-5.07;87.09
63351;BME280;64988;51.058;17.040;2023-03-02T02:59:50;101038.34;;;-5.16;86.91
63351;BME280;64988;51.058;17.040;2023-03-02T03:05:19;101047.16;;;-5.25;85.99
63351;BME280;64988;51.058;17.040;2023-03-02T03:10:46;101038.41;;;-5.28;86.70
63351;BME280;64988;51.058;17.040;2023-03-02T03:16:15;101039.25;;;-5.30;87.41
63351;BME280;64988;51.058;17.040;2023-03-02T03:21:47;101034.91;;;-5.43;86.11
63351;BME280;64988;51.058;17.040;2023-03-02T03:27:15;101031.44;;;-5.46;87.69
63351;BME280;64988;51.058;17.040;2023-03-02T03:32:43;101038.44;;;-5.41;88.75
63351;BME280;64988;51.058;17.040;2023-03-02T03:38:12;101040.19;;;-5.49;88.05
63351;BME280;64988;51.058;17.040;2023-03-02T03:43:41;101029.69;;;-5.52;88.45
63351;BME280;64988;51.058;17.040;2023-03-02T03:49:09;101038.47;;;-5.54;86.15
63351;BME280;64988;51.058;17.040;2023-03-02T03:54:37;101031.47;;;-5.75;86.28
63351;BME280;64988;51.058;17.040;2023-03-02T04:00:07;101027.97;;;-5.77;86.27
63351;BME280;64988;51.058;17.040;2023-03-02T04:05:50;101035.00;;;-5.82;87.38
63351;BME280;64988;51.058;17.040;2023-03-02T04:11:17;101030.66;;;-5.86;87.10
63351;BME280;64988;51.058;17.040;2023-03-02T04:16:45;101024.50;;;-5.79;88.12
63351;BME280;64988;51.058;17.040;2023-03-02T04:22:13;101027.97;;;-5.66;88.58
63351;BME280;64988;51.058;17.040;2023-03-02T04:27:41;101018.28;;;-5.51;88.36
63351;BME280;64988;51.058;17.040;2023-03-02T04:33:08;101022.66;;;-5.42;88.96
63351;BME280;64988;51.058;17.040;2023-03-02T04:38:36;101016.47;;;-5.29;89.96
63351;BME280;64988;51.058;17.040;2023-03-02T04:44:04;101013.84;;;-5.24;89.41
63351;BME280;64988;51.058;17.040;2023-03-02T04:49:30;101012.09;;;-5.28;89.02
63351;BME280;64988;51.058;17.040;2023-03-02T04:54:58;101004.22;;;-5.38;88.45
63351;BME280;64988;51.058;17.040;2023-03-02T05:00:44;101008.63;;;-5.41;88.28
63351;BME280;64988;51.058;17.040;2023-03-02T05:06:12;101002.53;;;-5.46;89.13
63351;BME280;64988;51.058;17.040;2023-03-02T05:11:40;101010.38;;;-5.42;88.07
63351;BME280;64988;51.058;17.040;2023-03-02T05:17:08;101022.66;;;-5.44;88.11
63351;BME280;64988;51.058;17.040;2023-03-02T05:22:35;101020.91;;;-5.43;88.43
63351;BME280;64988;51.058;17.040;2023-03-02T05:28:03;101029.66;;;-5.34;89.20
63351;BME280;64988;51.058;17.040;2023-03-02T05:33:31;101014.69;;;-5.21;88.94
63351;BME280;64988;51.058;17.040;2023-03-02T05:38:59;101003.28;;;-5.18;90.13
63351;BME280;64988;51.058;17.040;2023-03-02T05:44:27;101007.59;;;-4.99;88.99
63351;BME280;64988;51.058;17.040;2023-03-02T05:49:54;101006.59;;;-4.80;88.34
63351;BME280;64988;51.058;17.040;2023-03-02T05:55:22;101014.38;;;-4.53;88.46
63351;BME280;64988;51.058;17.040;2023-03-02T06:00:50;101010.50;;;-4.08;88.52
63351;BME280;64988;51.058;17.040;2023-03-02T06:06:27;101017.75;;;-3.37;88.05
63351;BME280;64988;51.058;17.040;2023-03-02T06:11:54;101024.22;;;-2.26;88.77
63351;BME280;64988;51.058;17.040;2023-03-02T06:17:22;101026.28;;;-0.96;88.31
63351;BME280;64988;51.058;17.040;2023-03-02T06:22:49;101018.75;;;0.37;86.81
63351;BME280;64988;51.058;17.040;2023-03-02T06:28:17;101020.16;;;1.74;84.09
63351;BME280;64988;51.058;17.040;2023-03-02T06:33:48;101014.41;;;2.91;76.16
63351;BME280;64988;51.058;17.040;2023-03-02T06:39:16;101014.50;;;4.02;69.88
63351;BME280;64988;51.058;17.040;2023-03-02T06:44:43;101012.13;;;5.38;68.53
63351;BME280;64988;51.058;17.040;2023-03-02T06:50:10;101011.81;;;6.71;59.87
63351;BME280;64988;51.058;17.040;2023-03-02T06:55:38;101008.91;;;8.06;54.85
63351;BME280;64988;51.058;17.040;2023-03-02T07:01:06;101010.31;;;8.88;50.10
63351;BME280;64988;51.058;17.040;2023-03-02T07:06:34;101018.28;;;10.02;46.72
63351;BME280;64988;51.058;17.040;2023-03-02T07:12:02;101002.22;;;10.94;43.01
63351;BME280;64988;51.058;17.040;2023-03-02T07:17:30;101008.50;;;12.19;39.93
63351;BME280;64988;51.058;17.040;2023-03-02T07:22:57;101005.91;;;13.00;36.86
63351;BME280;64988;51.058;17.040;2023-03-02T07:28:25;101001.97;;;13.61;35.13
63351;BME280;64988;51.058;17.040;2023-03-02T07:33:53;101000.69;;;14.20;32.93
63351;BME280;64988;51.058;17.040;2023-03-02T07:39:20;100995.00;;;15.29;30.97
63351;BME280;64988;51.058;17.040;2023-03-02T07:44:47;100997.84;;;15.99;29.43
63351;BME280;64988;51.058;17.040;2023-03-02T07:50:15;100998.41;;;16.80;28.93
63351;BME280;64988;51.058;17.040;2023-03-02T07:55:42;100999.59;;;17.63;27.88
63351;BME280;64988;51.058;17.040;2023-03-02T08:01:10;101003.03;;;16.80;27.42
63351;BME280;64988;51.058;17.040;2023-03-02T08:06:38;100999.72;;;16.86;27.97
63351;BME280;64988;51.058;17.040;2023-03-02T08:12:08;100995.78;;;17.27;26.97
63351;BME280;64988;51.058;17.040;2023-03-02T08:17:35;100990.69;;;17.61;26.13
63351;BME280;64988;51.058;17.040;2023-03-02T08:23:02;100998.72;;;17.99;25.24
63351;BME280;64988;51.058;17.040;2023-03-02T08:28:29;100998.59;;;17.91;25.12
63351;BME280;64988;51.058;17.040;2023-03-02T08:33:56;100996.91;;;17.80;25.39
63351;BME280;64988;51.058;17.040;2023-03-02T08:39:25;101006.16;;;17.79;26.42
63351;BME280;64988;51.058;17.040;2023-03-02T08:44:56;101005.44;;;18.05;25.82
63351;BME280;64988;51.058;17.040;2023-03-02T08:50:23;101004.03;;;18.28;25.00
63351;BME280;64988;51.058;17.040;2023-03-02T08:55:51;100992.25;;;18.45;23.37
63351;BME280;64988;51.058;17.040;2023-03-02T09:01:25;100986.72;;;18.10;24.27
63351;BME280;64988;51.058;17.040;2023-03-02T09:06:54;100986.22;;;17.69;24.87
63351;BME280;64988;51.058;17.040;2023-03-02T09:12:22;100984.72;;;17.19;25.15
63351;BME280;64988;51.058;17.040;2023-03-02T09:17:49;100976.16;;;16.85;26.19
63351;BME280;64988;51.058;17.040;2023-03-02T09:23:18;100972.31;;;16.09;25.59
63351;BME280;64988;51.058;17.040;2023-03-02T09:28:47;100966.28;;;16.06;25.88
63351;BME280;64988;51.058;17.040;2023-03-02T09:34:14;100966.50;;;15.74;26.47
63351;BME280;64988;51.058;17.040;2023-03-02T09:39:42;100965.97;;;15.50;26.14
63351;BME280;64988;51.058;17.040;2023-03-02T09:45:20;100959.38;;;15.01;27.15
63351;BME280;64988;51.058;17.040;2023-03-02T09:56:27;100948.28;;;13.87;28.48
63351;BME280;64988;51.058;17.040;2023-03-02T10:01:56;100954.34;;;13.35;29.49
63351;BME280;64988;51.058;17.040;2023-03-02T10:07:35;100950.75;;;13.12;30.24
63351;BME280;64988;51.058;17.040;2023-03-02T10:13:51;100953.25;;;12.69;29.68
63351;BME280;64988;51.058;17.040;2023-03-02T10:25:00;100952.63;;;11.45;30.64
63351;BME280;64988;51.058;17.040;2023-03-02T10:30:36;100941.63;;;10.98;32.42
63351;BME280;64988;51.058;17.040;2023-03-02T10:36:17;100943.25;;;10.36;34.92
63351;BME280;64988;51.058;17.040;2023-03-02T10:41:52;100936.38;;;9.91;35.52
63351;BME280;64988;51.058;17.040;2023-03-02T10:47:27;100935.84;;;9.72;36.00
63351;BME280;64988;51.058;17.040;2023-03-02T10:52:55;100927.72;;;9.45;37.66
63351;BME280;64988;51.058;17.040;2023-03-02T10:58:31;100917.06;;;9.29;37.30
63351;BME280;64988;51.058;17.040;2023-03-02T11:04:00;100911.50;;;9.04;36.74
63351;BME280;64988;51.058;17.040;2023-03-02T11:09:28;100904.28;;;8.90;37.82
63351;BME280;64988;51.058;17.040;2023-03-02T11:21:16;100891.97;;;8.72;40.18
63351;BME280;64988;51.058;17.040;2023-03-02T11:26:55;100873.22;;;8.71;39.81
63351;BME280;64988;51.058;17.040;2023-03-02T11:32:46;100884.94;;;8.70;40.53
63351;BME280;64988;51.058;17.040;2023-03-02T11:38:26;100866.94;;;8.42;40.81
63351;BME280;64988;51.058;17.040;2023-03-02T11:43:59;100859.78;;;8.27;41.25
63351;BME280;64988;51.058;17.040;2023-03-02T11:49:54;100854.72;;;8.21;41.71
63351;BME280;64988;51.058;17.040;2023-03-02T11:55:25;100845.44;;;8.26;42.77
63351;BME280;64988;51.058;17.040;2023-03-02T12:00:54;100837.91;;;8.47;43.72
63351;BME280;64988;51.058;17.040;2023-03-02T12:06:27;100836.38;;;8.57;42.53
63351;BME280;64988;51.058;17.040;2023-03-02T12:17:52;100819.31;;;8.72;42.81
63351;BME280;64988;51.058;17.040;2023-03-02T12:23:25;100809.47;;;8.57;42.55
63351;BME280;64988;51.058;17.040;2023-03-02T12:34:38;100797.88;;;8.42;43.48
63351;BME280;64988;51.058;17.040;2023-03-02T12:51:48;100786.44;;;8.39;44.42
63351;BME280;64988;51.058;17.040;2023-03-02T12:57:18;100781.31;;;8.34;44.24
63351;BME280;64988;51.058;17.040;2023-03-02T13:02:50;100770.69;;;8.33;43.78
63351;BME280;64988;51.058;17.040;2023-03-02T13:08:21;100770.09;;;8.42;44.08
63351;BME280;64988;51.058;17.040;2023-03-02T13:13:51;100755.97;;;8.53;43.47
63351;BME280;64988;51.058;17.040;2023-03-02T13:19:19;100755.00;;;8.54;43.51
63351;BME280;64988;51.058;17.040;2023-03-02T13:25:03;100737.91;;;8.69;43.33
63351;BME280;64988;51.058;17.040;2023-03-02T13:30:34;100739.72;;;8.54;44.34
63351;BME280;64988;51.058;17.040;2023-03-02T13:36:04;100721.28;;;8.62;43.94
63351;BME280;64988;51.058;17.040;2023-03-02T13:41:34;100722.25;;;8.47;43.56
63351;BME280;64988;51.058;17.040;2023-03-02T13:47:02;100710.91;;;8.42;43.90
63351;BME280;64988;51.058;17.040;2023-03-02T13:52:30;100707.91;;;8.47;43.77
63351;BME280;64988;51.058;17.040;2023-03-02T13:57:59;100698.41;;;8.55;42.87
63351;BME280;64988;51.058;17.040;2023-03-02T14:03:29;100697.28;;;8.45;43.17
63351;BME280;64988;51.058;17.040;2023-03-02T14:08:56;100694.47;;;8.47;43.34
63351;BME280;64988;51.058;17.040;2023-03-02T14:14:25;100682.88;;;8.46;44.29
63351;BME280;64988;51.058;17.040;2023-03-02T14:19:55;100672.88;;;8.34;44.85
63351;BME280;64988;51.058;17.040;2023-03-02T14:25:23;100666.25;;;8.39;44.83
63351;BME280;64988;51.058;17.040;2023-03-02T14:30:53;100652.03;;;8.23;44.34
63351;BME280;64988;51.058;17.040;2023-03-02T14:36:31;100655.66;;;8.22;43.35
63351;BME280;64988;51.058;17.040;2023-03-02T14:41:59;100640.88;;;8.15;44.04
63351;BME280;64988;51.058;17.040;2023-03-02T14:47:26;100644.84;;;8.24;45.18
63351;BME280;64988;51.058;17.040;2023-03-02T14:52:56;100638.50;;;8.11;46.44
63351;BME280;64988;51.058;17.040;2023-03-02T14:58:29;100635.91;;;8.09;46.11
63351;BME280;64988;51.058;17.040;2023-03-02T15:03:58;100636.09;;;8.06;47.32
63351;BME280;64988;51.058;17.040;2023-03-02T15:09:26;100630.31;;;7.98;47.96
63351;BME280;64988;51.058;17.040;2023-03-02T15:14:53;100631.50;;;7.94;48.98
63351;BME280;64988;51.058;17.040;2023-03-02T15:20:20;100624.84;;;7.85;49.87
63351;BME280;64988;51.058;17.040;2023-03-02T15:25:48;100626.50;;;7.74;50.10
63351;BME280;64988;51.058;17.040;2023-03-02T15:31:17;100625.94;;;7.69;50.04
63351;BME280;64988;51.058;17.040;2023-03-02T15:36:44;100619.66;;;7.54;49.58
63351;BME280;64988;51.058;17.040;2023-03-02T15:42:12;100627.53;;;7.43;49.90
63351;BME280;64988;51.058;17.040;2023-03-02T15:47:39;100617.31;;;7.34;50.28
63351;BME280;64988;51.058;17.040;2023-03-02T15:53:07;100616.25;;;7.22;50.39
63351;BME280;64988;51.058;17.040;2023-03-02T15:58:34;100620.03;;;7.04;51.59
63351;BME280;64988;51.058;17.040;2023-03-02T16:04:01;100610.53;;;6.83;52.58
63351;BME280;64988;51.058;17.040;2023-03-02T16:09:30;100611.00;;;6.60;54.30
63351;BME280;64988;51.058;17.040;2023-03-02T16:14:57;100619.25;;;6.41;55.15
63351;BME280;64988;51.058;17.040;2023-03-02T16:20:26;100618.88;;;6.16;56.44
63351;BME280;64988;51.058;17.040;2023-03-02T16:25:53;100618.34;;;5.94;57.33
63351;BME280;64988;51.058;17.040;2023-03-02T16:31:21;100623.81;;;5.75;59.47
63351;BME280;64988;51.058;17.040;2023-03-02T16:36:53;100625.41;;;5.62;62.07
63351;BME280;64988;51.058;17.040;2023-03-02T16:42:20;100636.13;;;5.27;64.74
63351;BME280;64988;51.058;17.040;2023-03-02T16:47:48;100639.28;;;5.01;67.68
63351;BME280;64988;51.058;17.040;2023-03-02T16:53:18;100644.22;;;4.74;70.02
63351;BME280;64988;51.058;17.040;2023-03-02T16:58:46;100648.78;;;4.54;72.07
63351;BME280;64988;51.058;17.040;2023-03-02T17:04:14;100668.75;;;4.28;74.23
63351;BME280;64988;51.058;17.040;2023-03-02T17:09:44;100678.13;;;3.99;75.67
63351;BME280;64988;51.058;17.040;2023-03-02T17:15:12;100685.16;;;3.82;77.33
63351;BME280;64988;51.058;17.040;2023-03-02T17:20:39;100692.31;;;3.61;77.71
63351;BME280;64988;51.058;17.040;2023-03-02T17:26:07;100676.50;;;3.36;79.05
63351;BME280;64988;51.058;17.040;2023-03-02T17:31:35;100683.06;;;3.07;79.90
63351;BME280;64988;51.058;17.040;2023-03-02T17:37:03;100687.56;;;2.85;80.73
63351;BME280;64988;51.058;17.040;2023-03-02T17:42:31;100691.28;;;2.59;81.85
63351;BME280;64988;51.058;17.040;2023-03-02T17:47:59;100691.50;;;2.55;81.31
63351;BME280;64988;51.058;17.040;2023-03-02T17:53:27;100695.91;;;2.33;82.21
63351;BME280;64988;51.058;17.040;2023-03-02T17:58:58;100691.41;;;2.11;82.65
63351;BME280;64988;51.058;17.040;2023-03-02T18:04:26;100703.72;;;1.91;83.48
63351;BME280;64988;51.058;17.040;2023-03-02T18:09:54;100693.00;;;1.69;84.38
63351;BME280;64988;51.058;17.040;2023-03-02T18:15:22;100697.97;;;1.55;85.45
63351;BME280;64988;51.058;17.040;2023-03-02T18:20:50;100693.28;;;1.37;86.52
63351;BME280;64988;51.058;17.040;2023-03-02T18:26:18;100700.81;;;1.24;86.58
63351;BME280;64988;51.058;17.040;2023-03-02T18:31:47;100705.78;;;1.09;87.19
63351;BME280;64988;51.058;17.040;2023-03-02T18:37:16;100714.31;;;0.92;88.00
63351;BME280;64988;51.058;17.040;2023-03-02T18:42:46;100713.09;;;0.76;88.03
63351;BME280;64988;51.058;17.040;2023-03-02T18:48:15;100723.22;;;0.63;88.26
63351;BME280;64988;51.058;17.040;2023-03-02T18:53:46;100713.91;;;0.50;89.28
63351;BME280;64988;51.058;17.040;2023-03-02T18:59:16;100715.94;;;0.42;89.55
63351;BME280;64988;51.058;17.040;2023-03-02T19:04:45;100714.31;;;0.36;89.08
63351;BME280;64988;51.058;17.040;2023-03-02T19:10:14;100713.84;;;0.24;89.73
63351;BME280;64988;51.058;17.040;2023-03-02T19:15:42;100723.66;;;0.20;90.13
63351;BME280;64988;51.058;17.040;2023-03-02T19:21:10;100718.94;;;0.30;91.04
63351;BME280;64988;51.058;17.040;2023-03-02T19:26:39;100721.31;;;0.39;91.15
63351;BME280;64988;51.058;17.040;2023-03-02T19:32:06;100719.19;;;0.51;91.15
63351;BME280;64988;51.058;17.040;2023-03-02T19:37:35;100718.94;;;0.59;90.83
63351;BME280;64988;51.058;17.040;2023-03-02T19:43:03;100717.94;;;0.62;90.61
63351;BME280;64988;51.058;17.040;2023-03-02T19:48:32;100718.59;;;0.70;90.16
63351;BME280;64988;51.058;17.040;2023-03-02T19:54:01;100727.47;;;0.69;90.34
63351;BME280;64988;51.058;17.040;2023-03-02T19:59:30;100724.47;;;0.79;89.54
63351;BME280;64988;51.058;17.040;2023-03-02T20:04:59;100721.31;;;0.94;89.41
63351;BME280;64988;51.058;17.040;2023-03-02T20:16:02;100736.56;;;0.89;89.58
63351;BME280;64988;51.058;17.040;2023-03-02T20:21:31;100735.56;;;0.92;89.34
63351;BME280;64988;51.058;17.040;2023-03-02T20:26:59;100738.56;;;0.81;89.73
63351;BME280;64988;51.058;17.040;2023-03-02T20:32:28;100735.78;;;0.86;89.62
63351;BME280;64988;51.058;17.040;2023-03-02T20:37:57;100723.50;;;0.82;89.70
63351;BME280;64988;51.058;17.040;2023-03-02T20:43:25;100714.31;;;0.92;89.48
63351;BME280;64988;51.058;17.040;2023-03-02T20:48:54;100723.63;;;1.05;88.87
63351;BME280;64988;51.058;17.040;2023-03-02T20:54:24;100721.88;;;1.04;89.18
63351;BME280;64988;51.058;17.040;2023-03-02T20:59:53;100726.75;;;1.18;88.46
63351;BME280;64988;51.058;17.040;2023-03-02T21:05:22;100724.81;;;1.23;88.31
63351;BME280;64988;51.058;17.040;2023-03-02T21:10:50;100711.41;;;1.26;87.88
63351;BME280;64988;51.058;17.040;2023-03-02T21:16:36;100710.47;;;1.27;87.85
63351;BME280;64988;51.058;17.040;2023-03-02T21:22:05;100712.44;;;1.22;87.65
63351;BME280;64988;51.058;17.040;2023-03-02T21:27:37;100707.78;;;1.28;87.73
63351;BME280;64988;51.058;17.040;2023-03-02T21:33:08;100715.53;;;1.34;87.44
63351;BME280;64988;51.058;17.040;2023-03-02T21:38:36;100706.47;;;1.40;87.00
63351;BME280;64988;51.058;17.040;2023-03-02T21:44:08;100687.69;;;1.44;86.95
63351;BME280;64988;51.058;17.040;2023-03-02T21:49:35;100687.41;;;1.52;86.52
63351;BME280;64988;51.058;17.040;2023-03-02T21:55:02;100683.69;;;1.57;87.09
63351;BME280;64988;51.058;17.040;2023-03-02T22:00:34;100677.22;;;1.65;86.55
63351;BME280;64988;51.058;17.040;2023-03-02T22:06:02;100679.66;;;1.71;86.23
63351;BME280;64988;51.058;17.040;2023-03-02T22:11:33;100680.56;;;1.70;85.89
63351;BME280;64988;51.058;17.040;2023-03-02T22:17:14;100686.91;;;1.66;85.74
63351;BME280;64988;51.058;17.040;2023-03-02T22:22:43;100687.75;;;1.68;85.81
63351;BME280;64988;51.058;17.040;2023-03-02T22:28:16;100683.88;;;1.76;85.85
63351;BME280;64988;51.058;17.040;2023-03-02T22:33:45;100675.50;;;1.87;85.07
63351;BME280;64988;51.058;17.040;2023-03-02T22:39:26;100676.19;;;1.92;84.59
63351;BME280;64988;51.058;17.040;2023-03-02T22:45:14;100678.06;;;1.90;84.97
63351;BME280;64988;51.058;17.040;2023-03-02T22:50:46;100670.41;;;1.81;84.23
63351;BME280;64988;51.058;17.040;2023-03-02T22:56:35;100662.25;;;1.85;84.95
63351;BME280;64988;51.058;17.040;2023-03-02T23:02:13;100664.63;;;1.93;84.41
63351;BME280;64988;51.058;17.040;2023-03-02T23:07:43;100661.78;;;1.97;83.80
63351;BME280;64988;51.058;17.040;2023-03-02T23:13:13;100641.31;;;1.99;83.87
63351;BME280;64988;51.058;17.040;2023-03-02T23:18:41;100646.56;;;2.01;84.07
63351;BME280;64988;51.058;17.040;2023-03-02T23:24:10;100657.16;;;2.02;83.27
63351;BME280;64988;51.058;17.040;2023-03-02T23:29:38;100636.75;;;2.03;83.32
63351;BME280;64988;51.058;17.040;2023-03-02T23:35:07;100646.41;;;2.05;83.82
63351;BME280;64988;51.058;17.040;2023-03-02T23:40:35;100642.81;;;2.06;83.86
63351;BME280;64988;51.058;17.040;2023-03-02T23:46:03;100646.56;;;2.01;83.95
63351;BME280;64988;51.058;17.040;2023-03-02T23:51:30;100638.53;;;2.02;84.08
63351;BME280;64988;51.058;17.040;2023-03-02T23:56:59;100635.47;;;1.90;83.86
